Time;durP1;ratioP1;P1;durP2;ratioP2;P2;SDS_P1;SDS_P2;PMS_P1;PMS_P2;Temp;Humidity;BMP_temperature;BMP_pressure;BME280_temperature;BME280_humidity;BME280_pressure;Samples;Min_cycle;Max_cycle;Signal;HPM_P1;HPM_P2
2022/03/14 00:00:22;;;;;;;17.93;13.50;;;;;;;;;;4772669;29;20499;-80
2022/03/14 00:02:48;;;;;;;18.20;13.70;;;;;;;;;;4826064;29;20430;-80
2022/03/14 00:05:15;;;;;;;20.38;13.50;;;;;;;;;;4775676;29;20518;-81
2022/03/14 00:07:46;;;;;;;21.10;14.63;;;;;;;;;;4789101;29;20452;-81
2022/03/14 00:10:16;;;;;;;19.63;14.27;;;;;;;;;;4787612;29;20439;-81
2022/03/14 00:12:43;;;;;;;20.95;14.40;;;9.80;99.90;;;;;;4790032;29;20427;-80
2022/03/14 00:15:13;;;;;;;19.45;14.48;;;9.70;99.90;;;;;;4779985;29;20728;-81
2022/03/14 00:17:42;;;;;;;20.63;15.05;;;9.30;99.90;;;;;;4772996;29;20434;-81
2022/03/14 00:20:11;;;;;;;19.13;14.35;;;;;;;;;;4775881;29;20438;-81
2022/03/14 00:22:37;;;;;;;22.70;14.98;;;;;;;;;;4788463;29;20427;-81
2022/03/14 00:25:04;;;;;;;19.45;14.77;;;;;;;;;;4782618;29;20464;-81
2022/03/14 00:27:31;;;;;;;20.20;15.27;;;;;;;;;;4802461;29;20498;-81
2022/03/14 00:29:57;;;;;;;21.20;14.30;;;;;;;;;;4800714;29;20438;-81
2022/03/14 00:32:24;;;;;;;19.88;14.70;;;;;;;;;;4803123;29;20424;-81
2022/03/14 00:34:50;;;;;;;22.73;14.80;;;;;;;;;;4780858;29;20516;-81
2022/03/14 00:37:16;;;;;;;21.55;15.05;;;;;;;;;;4787096;29;20482;-81
2022/03/14 00:39:42;;;;;;;19.75;14.23;;;;;;;;;;4785562;29;20785;-81
2022/03/14 00:42:08;;;;;;;18.90;13.98;;;;;;;;;;4788752;29;20427;-81
2022/03/14 00:44:34;;;;;;;22.30;14.82;;;;;;;;;;4795361;29;20435;-81
2022/03/14 00:47:00;;;;;;;21.23;14.70;;;;;;;;;;4793292;29;20449;-81
2022/03/14 00:49:27;;;;;;;19.88;14.25;;;;;;;;;;4799538;29;20480;-81
2022/03/14 00:51:53;;;;;;;21.50;15.20;;;;;;;;;;4792768;29;20423;-81
2022/03/14 00:54:19;;;;;;;19.58;14.25;;;;;;;;;;4769536;29;20435;-81
2022/03/14 00:56:45;;;;;;;20.25;14.07;;;;;;;;;;4754907;30;20425;-81
2022/03/14 00:59:11;;;;;;;19.13;13.68;;;;;;;;;;4781908;29;20434;-81
2022/03/14 01:01:37;;;;;;;21.98;14.45;;;;;;;;;;4772613;29;20437;-81
2022/03/14 01:04:03;;;;;;;18.73;13.43;;;;;;;;;;4786736;29;20800;-81
2022/03/14 01:06:30;;;;;;;19.30;14.53;;;;;;;;;;4771296;29;20509;-81
2022/03/14 01:08:56;;;;;;;19.67;14.18;;;;;;;;;;4796168;29;20440;-81
2022/03/14 01:11:22;;;;;;;20.73;14.80;;;;;;;;;;4777056;29;20462;-81
2022/03/14 01:13:48;;;;;;;21.63;14.82;;;;;;;;;;4787709;29;20463;-81
2022/03/14 01:16:14;;;;;;;17.97;13.97;;;;;;;;;;4787138;29;20428;-82
2022/03/14 01:18:40;;;;;;;19.38;14.40;;;;;;;;;;4815736;29;20430;-81
2022/03/14 01:21:07;;;;;;;21.52;14.15;;;;;;;;;;4786504;29;20466;-81
2022/03/14 01:23:33;;;;;;;19.17;14.07;;;;;;;;;;4773159;29;20784;-81
2022/03/14 01:25:59;;;;;;;21.48;15.68;;;;;;;;;;4757121;29;21004;-81
2022/03/14 01:28:25;;;;;;;18.40;14.20;;;;;;;;;;4795956;29;20911;-81
2022/03/14 01:30:51;;;;;;;19.27;14.85;;;;;;;;;;4788834;29;20427;-81
2022/03/14 01:33:17;;;;;;;19.23;14.10;;;;;;;;;;4803474;29;20433;-81
2022/03/14 01:35:44;;;;;;;17.87;13.60;;;;;;;;;;4781085;29;20419;-83
2022/03/14 01:38:11;;;;;;;21.30;14.68;;;;;;;;;;4796699;29;20431;-82
2022/03/14 01:40:37;;;;;;;20.35;13.80;;;;;;;;;;4792523;29;20997;-83
2022/03/14 01:43:03;;;;;;;18.90;13.70;;;;;;;;;;4794319;29;20437;-82
2022/03/14 01:45:29;;;;;;;17.83;14.45;;;;;;;;;;4788401;29;20443;-82
2022/03/14 01:47:55;;;;;;;19.42;13.90;;;;;;;;;;4771710;29;20516;-83
2022/03/14 01:50:21;;;;;;;18.27;14.05;;;;;;;;;;4787104;29;20511;-82
2022/03/14 01:52:48;;;;;;;19.42;14.02;;;;;;;;;;4802024;29;20431;-82
2022/03/14 01:55:14;;;;;;;19.08;14.23;;;;;;;;;;4787054;29;20769;-82
2022/03/14 01:57:41;;;;;;;19.52;14.32;;;;;;;;;;4805436;29;20525;-82
2022/03/14 02:00:10;;;;;;;19.75;14.95;;;9.90;99.90;;;;;;4778795;29;20458;-82
2022/03/14 02:02:36;;;;;;;18.95;13.98;;;;;;;;;;4790678;29;20423;-82
2022/03/14 02:05:02;;;;;;;18.33;13.45;;;;;;;;;;4779945;29;20438;-82
2022/03/14 02:07:28;;;;;;;19.00;13.30;;;;;;;;;;4790043;29;20479;-82
2022/03/14 02:09:54;;;;;;;18.75;13.30;;;;;;;;;;4820329;29;20431;-82
2022/03/14 02:12:20;;;;;;;18.67;13.20;;;;;;;;;;4775192;29;20430;-82
2022/03/14 02:14:46;;;;;;;18.33;13.18;;;;;;;;;;4804282;29;20506;-82
2022/03/14 02:17:13;;;;;;;19.65;13.43;;;;;;;;;;4790736;29;20427;-82
2022/03/14 02:19:40;;;;;;;16.65;12.75;;;;;;;;;;4805641;29;20438;-81
2022/03/14 02:22:12;;;;;;;19.52;13.02;;;;;;;;;;4793833;29;20448;-81
2022/03/14 02:24:39;;;;;;;17.38;12.15;;;9.90;99.90;;;;;;4804405;29;20427;-81
2022/03/14 02:27:05;;;;;;;18.67;11.85;;;;;;;;;;4791173;29;20427;-83
2022/03/14 02:29:31;;;;;;;16.45;11.50;;;;;;;;;;4789680;29;20427;-83
2022/03/14 02:31:57;;;;;;;17.42;11.75;;;;;;;;;;4774895;29;20448;-83
2022/03/14 02:34:24;;;;;;;15.90;11.50;;;;;;;;;;4789667;29;20491;-83
2022/03/14 02:36:50;;;;;;;16.40;11.35;;;;;;;;;;4820070;29;20447;-82
2022/03/14 02:39:16;;;;;;;16.87;11.13;;;;;;;;;;4780693;29;20531;-82
2022/03/14 02:41:42;;;;;;;20.45;11.63;;;;;;;;;;4810335;29;20456;-82
2022/03/14 02:44:09;;;;;;;20.43;11.43;;;;;;;;;;4801355;29;20427;-82
2022/03/14 02:46:37;;;;;;;18.25;11.63;;;;;;;;;;4786746;29;20532;-81
2022/03/14 02:49:04;;;;;;;23.70;11.87;;;;;;;;;;4794769;29;20486;-82
2022/03/14 02:51:30;;;;;;;16.48;10.55;;;;;;;;;;4791974;29;20488;-82
2022/03/14 02:53:56;;;;;;;14.73;10.25;;;;;;;;;;4795403;29;20454;-82
2022/03/14 02:56:23;;;;;;;17.60;10.57;;;;;;;;;;4774628;29;20435;-81
2022/03/14 02:58:53;;;;;;;14.23;10.55;;;;;;;;;;4789720;29;20431;-82
2022/03/14 03:01:20;;;;;;;15.55;10.70;;;;;;;;;;4789914;29;20431;-82
2022/03/14 03:03:47;;;;;;;13.70;10.27;;;;;;;;;;4808689;29;20450;-82
2022/03/14 03:06:13;;;;;;;13.30;9.52;;;;;;;;;;4789705;29;20494;-82
2022/03/14 03:08:44;;;;;;;10.98;8.85;;;;;;;;;;4774270;29;20447;-83
2022/03/14 03:11:13;;;;;;;12.95;9.10;;;;;;;;;;4789305;29;20992;-82
2022/03/14 03:13:41;;;;;;;17.50;9.50;;;10.00;99.90;;;;;;4804444;29;20435;-81
2022/03/14 03:16:08;;;;;;;12.85;9.32;;;;;;;;;;4774476;29;20457;-82
2022/03/14 03:18:35;;;;;;;10.90;8.85;;;10.00;99.90;;;;;;4788526;29;20427;-81
2022/03/14 03:21:01;;;;;;;11.27;8.70;;;;;;;;;;4789681;29;20777;-82
2022/03/14 03:23:28;;;;;;;13.23;9.07;;;;;;;;;;4788206;29;20442;-83
2022/03/14 03:25:54;;;;;;;11.60;8.70;;;;;;;;;;4796094;29;20422;-82
2022/03/14 03:28:20;;;;;;;11.57;8.43;;;;;;;;;;4758908;29;20447;-82
2022/03/14 03:30:47;;;;;;;10.88;8.35;;;;;;;;;;4808255;29;20530;-82
2022/03/14 03:33:13;;;;;;;12.90;8.80;;;;;;;;;;4807443;29;20427;-82
2022/03/14 03:35:39;;;;;;;13.57;8.27;;;;;;;;;;4795908;29;20439;-82
2022/03/14 03:38:05;;;;;;;14.30;8.55;;;;;;;;;;4817616;29;20431;-82
2022/03/14 03:40:31;;;;;;;10.87;7.97;;;;;;;;;;4775567;29;20435;-82
2022/03/14 03:42:57;;;;;;;14.18;8.73;;;;;;;;;;4762293;29;20946;-83
2022/03/14 03:45:24;;;;;;;9.88;7.82;;;;;;;;;;4795198;29;20977;-82
2022/03/14 03:47:50;;;;;;;13.02;7.50;;;;;;;;;;4793696;29;20451;-82
2022/03/14 03:50:17;;;;;;;11.45;7.82;;;;;;;;;;4788221;29;20431;-81
2022/03/14 03:52:44;;;;;;;10.32;7.50;;;;;;;;;;4773943;29;20430;-82
2022/03/14 03:55:10;;;;;;;14.48;8.02;;;;;;;;;;4788110;29;20738;-82
2022/03/14 03:57:36;;;;;;;11.68;7.55;;;;;;;;;;4787961;29;20431;-82
2022/03/14 04:00:09;;;;;;;11.05;7.22;;;;;;;;;;4793370;29;20536;-81
2022/03/14 04:02:38;;;;;;;8.50;6.78;;;;;;;;;;4818109;29;20471;-82
2022/03/14 04:05:05;;;;;;;8.63;6.55;;;;;;;;;;4806429;29;20433;-82
2022/03/14 04:07:32;;;;;;;11.63;7.25;;;;;;;;;;4793756;29;20490;-82
2022/03/14 04:09:59;;;;;;;9.18;6.00;;;;;;;;;;4788337;29;20420;-82
2022/03/14 04:12:26;;;;;;;8.68;6.57;;;;;;;;;;4764260;29;20429;-81
2022/03/14 04:14:58;;;;;;;8.70;5.82;;;9.80;99.90;;;;;;4792087;29;20929;-81
2022/03/14 04:17:25;;;;;;;9.75;6.10;;;;;;;;;;4774315;29;20987;-81
2022/03/14 04:19:52;;;;;;;7.22;6.28;;;;;;;;;;4772953;29;20552;-80
2022/03/14 04:22:19;;;;;;;7.55;6.15;;;;;;;;;;4777347;29;20427;-81
2022/03/14 04:24:45;;;;;;;9.20;6.03;;;;;;;;;;4758263;29;20809;-82
2022/03/14 04:27:11;;;;;;;9.45;6.07;;;;;;;;;;4788351;29;20432;-81
2022/03/14 04:29:38;;;;;;;8.50;6.20;;;;;;;;;;4799769;29;20429;-81
2022/03/14 04:32:04;;;;;;;7.75;5.78;;;;;;;;;;4809441;29;20459;-81
2022/03/14 04:34:30;;;;;;;7.28;5.82;;;;;;;;;;4773609;29;20459;-81
2022/03/14 04:36:57;;;;;;;9.75;5.55;;;;;;;;;;4794724;29;20438;-80
2022/03/14 04:39:23;;;;;;;7.47;5.50;;;;;;;;;;4787494;29;20435;-81
2022/03/14 04:41:50;;;;;;;8.32;5.15;;;;;;;;;;4787321;29;20851;-81
2022/03/14 04:44:16;;;;;;;7.18;5.20;;;;;;;;;;4787996;29;20438;-81
2022/03/14 04:46:42;;;;;;;7.40;5.25;;;;;;;;;;4784521;29;20440;-81
2022/03/14 04:49:09;;;;;;;7.07;5.10;;;;;;;;;;4787283;29;20512;-81
2022/03/14 04:51:36;;;;;;;6.40;5.00;;;;;;;;;;4799715;29;20423;-81
2022/03/14 04:54:02;;;;;;;6.20;5.13;;;;;;;;;;4817664;29;20430;-81
2022/03/14 04:56:29;;;;;;;7.55;4.72;;;;;;;;;;4774393;29;20434;-81
2022/03/14 04:58:55;;;;;;;8.10;4.43;;;;;;;;;;4778622;29;20429;-81
2022/03/14 05:01:23;;;;;;;7.25;4.50;;;;;;;;;;4785288;29;20430;-81
2022/03/14 05:03:52;;;;;;;5.80;4.38;;;;;;;;;;4815825;29;20432;-81
2022/03/14 05:06:21;;;;;;;6.10;4.25;;;;;;;;;;4819037;29;20845;-81
2022/03/14 05:08:48;;;;;;;6.20;4.50;;;;;;;;;;4783464;29;20454;-80
2022/03/14 05:11:14;;;;;;;6.70;4.22;;;;;;;;;;4787275;29;20431;-80
2022/03/14 05:13:43;;;;;;;6.28;4.40;;;;;;;;;;4802473;29;20481;-80
2022/03/14 05:16:10;;;;;;;6.10;4.45;;;;;;;;;;4806169;29;20436;-80
2022/03/14 05:18:36;;;;;;;5.57;4.28;;;;;;;;;;4760030;29;20788;-80
2022/03/14 05:21:02;;;;;;;5.22;4.05;;;;;;;;;;4818107;29;20958;-79
2022/03/14 05:23:28;;;;;;;5.57;4.40;;;;;;;;;;4807640;29;20435;-79
2022/03/14 05:25:55;;;;;;;6.30;4.22;;;;;;;;;;4787225;29;20940;-79
2022/03/14 05:28:21;;;;;;;5.87;4.30;;;;;;;;;;4816684;29;20586;-80
2022/03/14 05:30:48;;;;;;;6.07;3.97;;;;;;;;;;4790097;29;20423;-80
2022/03/14 05:33:14;;;;;;;5.73;4.07;;;;;;;;;;4805597;29;20486;-80
2022/03/14 05:35:40;;;;;;;6.80;4.03;;;;;;;;;;4800467;29;20930;-80
2022/03/14 05:38:07;;;;;;;6.28;4.10;;;;;;;;;;4806720;29;20440;-80
2022/03/14 05:40:33;;;;;;;7.10;4.28;;;;;;;;;;4804219;29;20442;-80
2022/03/14 05:42:59;;;;;;;7.65;4.28;;;;;;;;;;4815244;29;20461;-80
2022/03/14 05:45:26;;;;;;;5.50;4.00;;;;;;;;;;4809300;29;20497;-80
2022/03/14 05:47:52;;;;;;;5.82;4.07;;;;;;;;;;4772135;29;20457;-80
2022/03/14 05:50:19;;;;;;;5.70;4.40;;;;;;;;;;4802459;29;20456;-79
2022/03/14 05:52:45;;;;;;;5.78;4.05;;;;;;;;;;4787459;29;20525;-79
2022/03/14 05:55:12;;;;;;;5.35;4.13;;;;;;;;;;4790590;29;20828;-79
2022/03/14 05:57:38;;;;;;;7.53;4.53;;;;;;;;;;4787362;29;20433;-79
2022/03/14 06:00:04;;;;;;;6.00;4.63;;;;;;;;;;4779281;29;20453;-79
2022/03/14 06:02:30;;;;;;;8.60;4.88;;;;;;;;;;4760862;29;20842;-79
2022/03/14 06:04:57;;;;;;;8.02;4.43;;;;;;;;;;4771724;30;20439;-79
2022/03/14 06:07:23;;;;;;;6.72;4.53;;;;;;;;;;4805489;29;20510;-79
2022/03/14 06:09:49;;;;;;;6.95;4.60;;;9.70;99.90;;;;;;4780118;29;20429;-79
2022/03/14 06:12:26;;;;;;;7.38;4.75;;;;;;;;;;4778832;29;20527;-80
2022/03/14 06:14:56;;;;;;;7.60;4.80;;;9.60;99.90;;;;;;4795722;29;20958;-79
2022/03/14 06:17:22;;;;;;;7.15;4.80;;;;;;;;;;4815992;29;20425;-79
2022/03/14 06:19:49;;;;;;;28.08;5.18;;;;;;;;;;4771864;30;20482;-79
2022/03/14 06:22:16;;;;;;;7.55;5.47;;;;;;;;;;4786481;29;20434;-80
2022/03/14 06:24:42;;;;;;;7.00;5.05;;;;;;;;;;4795900;29;20434;-80
2022/03/14 06:27:08;;;;;;;7.22;5.07;;;;;;;;;;4782772;29;20427;-80
2022/03/14 06:29:34;;;;;;;7.07;4.97;;;;;;;;;;4800096;29;20610;-81
2022/03/14 06:32:01;;;;;;;11.55;6.90;;;;;;;;;;4803158;29;20427;-80
2022/03/14 06:34:27;;;;;;;8.93;6.82;;;;;;;;;;4770566;29;20779;-80
2022/03/14 06:36:53;;;;;;;8.50;6.40;;;;;;;;;;4791689;29;20428;-80
2022/03/14 06:39:19;;;;;;;8.40;6.15;;;;;;;;;;4815727;29;20457;-80
2022/03/14 06:41:46;;;;;;;9.18;6.45;;;;;;;;;;4803390;29;20438;-79
2022/03/14 06:44:13;;;;;;;6.10;4.75;;;;;;;;;;4804752;29;20445;-80
2022/03/14 06:46:40;;;;;;;7.90;5.63;;;;;;;;;;4803960;29;20454;-79
2022/03/14 06:49:06;;;;;;;7.47;4.93;;;;;;;;;;4815578;29;20451;-79
2022/03/14 06:51:33;;;;;;;8.17;5.50;;;;;;;;;;4789707;29;20442;-79
2022/03/14 06:53:59;;;;;;;12.13;7.07;;;;;;;;;;4774666;29;20427;-80
2022/03/14 06:56:25;;;;;;;8.20;5.55;;;;;;;;;;4789158;29;20497;-80
2022/03/14 06:58:52;;;;;;;9.23;5.32;;;;;;;;;;4816048;29;20518;-80
2022/03/14 07:01:18;;;;;;;8.65;5.15;;;;;;;;;;4794672;29;20506;-80
2022/03/14 07:03:44;;;;;;;9.15;5.13;;;;;;;;;;4784356;29;20430;-80
2022/03/14 07:06:11;;;;;;;7.35;5.03;;;;;;;;;;4793547;29;20457;-80
2022/03/14 07:08:37;;;;;;;6.17;4.93;;;;;;;;;;4811379;29;20488;-80
2022/03/14 07:11:03;;;;;;;7.93;5.30;;;;;;;;;;4790801;29;20443;-80
2022/03/14 07:13:29;;;;;;;7.32;5.18;;;;;;;;;;4813770;29;20491;-80
2022/03/14 07:15:55;;;;;;;7.72;5.38;;;;;;;;;;4775238;29;20434;-81
2022/03/14 07:18:21;;;;;;;7.20;5.40;;;;;;;;;;4793936;29;20433;-80
2022/03/14 07:20:47;;;;;;;7.10;5.47;;;;;;;;;;4797085;29;20431;-80
2022/03/14 07:23:13;;;;;;;8.23;5.20;;;;;;;;;;4774142;29;20843;-80
2022/03/14 07:25:39;;;;;;;8.13;5.75;;;;;;;;;;4758688;29;20470;-81
2022/03/14 07:28:07;;;;;;;9.53;5.17;;;9.50;99.90;;;;;;4803627;29;20473;-79
2022/03/14 07:30:34;;;;;;;11.07;8.75;;;;;;;;;;4788713;29;20448;-80
2022/03/14 07:33:00;;;;;;;10.53;5.40;;;;;;;;;;4806125;29;21009;-82
2022/03/14 07:35:27;;;;;;;7.75;5.45;;;;;;;;;;4796087;29;20423;-82
2022/03/14 07:37:53;;;;;;;13.13;6.10;;;;;;;;;;4758618;29;20936;-81
2022/03/14 07:40:20;;;;;;;11.70;6.00;;;;;;;;;;4788378;29;20916;-81
2022/03/14 07:42:47;;;;;;;10.68;5.90;;;9.70;99.90;;;;;;4803204;29;20438;-80
2022/03/14 07:45:18;;;;;;;9.73;5.93;;;;;;;;;;4792005;29;20466;-81
2022/03/14 07:47:44;;;;;;;8.77;5.80;;;;;;;;;;4772648;29;20463;-79
2022/03/14 07:50:13;;;;;;;9.43;6.13;;;;;;;;;;4816995;29;20430;-79
2022/03/14 07:52:39;;;;;;;9.85;6.13;;;;;;;;;;4790632;29;20924;-79
2022/03/14 07:55:07;;;;;;;8.98;5.80;;;;;;;;;;4776858;29;20506;-79
2022/03/14 07:57:33;;;;;;;9.40;7.15;;;;;;;;;;4782620;29;20434;-78
2022/03/14 08:00:00;;;;;;;11.55;6.80;;;;;;;;;;4785062;29;20518;-78
2022/03/14 08:02:26;;;;;;;9.98;5.82;;;;;;;;;;4806384;29;20439;-79
2022/03/14 08:04:52;;;;;;;10.57;6.50;;;;;;;;;;4806789;29;20482;-78
2022/03/14 08:07:20;;;;;;;10.77;6.43;;;;;;;;;;4778570;29;20436;-78
2022/03/14 08:09:48;;;;;;;8.10;6.15;;;;;;;;;;4787441;29;20776;-78
2022/03/14 08:12:14;;;;;;;9.00;6.25;;;;;;;;;;4802496;29;20423;-81
2022/03/14 08:14:40;;;;;;;11.52;6.82;;;;;;;;;;4805609;29;20427;-80
2022/03/14 08:17:06;;;;;;;8.98;6.90;;;;;;;;;;4788064;29;20503;-80
2022/03/14 08:19:33;;;;;;;8.23;6.33;;;;;;;;;;4787752;29;20830;-80
2022/03/14 08:21:59;;;;;;;8.50;6.50;;;;;;;;;;4804519;29;20429;-82
2022/03/14 08:24:25;;;;;;;9.50;6.90;;;;;;;;;;4785277;29;20431;-81
2022/03/14 08:26:53;;;;;;;8.40;6.53;;;;;;;;;;4787511;29;20427;-80
2022/03/14 08:29:19;;;;;;;8.18;6.38;;;;;;;;;;4789931;29;20565;-81
2022/03/14 08:31:45;;;;;;;7.40;6.43;;;;;;;;;;4787940;29;20424;-82
2022/03/14 08:34:12;;;;;;;8.40;7.10;;;;;;;;;;4787271;29;20983;-82
2022/03/14 08:36:40;;;;;;;10.52;8.73;;;;;;;;;;4787661;29;20428;-82
2022/03/14 08:39:07;;;;;;;9.47;7.03;;;;;;;;;;4794296;29;20536;-81
2022/03/14 08:41:36;;;;;;;8.90;7.18;;;;;;;;;;4787800;29;20576;-81
2022/03/14 08:44:04;;;;;;;9.57;7.10;;;;;;;;;;4787527;29;20431;-81
2022/03/14 08:46:30;;;;;;;10.52;8.80;;;;;;;;;;4790419;29;20449;-81
2022/03/14 08:48:57;;;;;;;10.23;8.02;;;;;;;;;;4793897;29;20449;-82
2022/03/14 08:51:23;;;;;;;11.00;8.23;;;;;;;;;;4795423;29;20427;-81
2022/03/14 08:53:49;;;;;;;9.88;8.30;;;;;;;;;;4776505;29;20931;-81
2022/03/14 08:56:15;;;;;;;10.40;8.18;;;;;;;;;;4798980;29;20422;-80
2022/03/14 08:58:41;;;;;;;13.85;11.07;;;;;;;;;;4796416;29;20427;-82
2022/03/14 09:01:10;;;;;;;16.17;12.48;;;;;;;;;;4772492;29;20442;-80
2022/03/14 09:03:37;;;;;;;17.00;13.63;;;;;;;;;;4787934;29;20457;-79
2022/03/14 09:06:04;;;;;;;19.53;15.63;;;;;;;;;;4786917;29;20531;-80
2022/03/14 09:08:31;;;;;;;22.08;17.77;;;;;;;;;;4803381;29;20522;-80
2022/03/14 09:11:00;;;;;;;23.38;17.88;;;;;;;;;;4828096;29;20429;-79
2022/03/14 09:13:26;;;;;;;26.23;18.87;;;;;;;;;;4798059;29;20959;-81
2022/03/14 09:15:52;;;;;;;23.20;18.35;;;;;;;;;;4772231;29;20431;-82
2022/03/14 09:18:20;;;;;;;31.50;25.90;;;;;;;;;;4795741;29;20431;-82
2022/03/14 09:20:48;;;;;;;28.80;20.05;;;;;;;;;;4815149;29;20429;-82
2022/03/14 09:23:15;;;;;;;26.17;19.40;;;;;;;;;;4798673;29;20439;-81
2022/03/14 09:25:41;;;;;;;27.85;21.63;;;;;;;;;;4818435;29;20475;-81
2022/03/14 09:28:07;;;;;;;25.45;19.52;;;;;;;;;;4759303;29;20913;-79
2022/03/14 09:30:33;;;;;;;25.13;19.92;;;;;;;;;;4802367;29;20427;-78
2022/03/14 09:32:59;;;;;;;26.90;19.65;;;;;;;;;;4797108;29;20540;-79
2022/03/14 09:35:26;;;;;;;29.92;21.50;;;;;;;;;;4808762;29;20423;-80
2022/03/14 09:37:52;;;;;;;31.70;20.70;;;;;;;;;;4800123;29;20568;-78
2022/03/14 09:40:22;;;;;;;35.63;22.88;;;;;;;;;;4775583;30;20516;-81
2022/03/14 09:42:53;;;;;;;27.33;18.20;;;;;;;;;;4824067;29;20932;-80
2022/03/14 09:45:19;;;;;;;26.38;16.73;;;;;;;;;;4787080;29;21061;-80
2022/03/14 09:47:57;;;;;;;32.28;19.52;;;9.40;99.90;;;;;;4784848;29;20462;-80
2022/03/14 09:50:32;;;;;;;33.33;20.20;;;9.30;99.90;;;;;;4827072;29;20422;-79
2022/03/14 09:53:01;;;;;;;32.50;19.73;;;;;;;;;;4811659;29;20498;-79
2022/03/14 09:55:27;;;;;;;36.17;20.57;;;;;;;;;;4816813;29;20428;-79
2022/03/14 09:57:55;;;;;;;34.50;20.08;;;;;;;;;;4792837;29;20520;-79
2022/03/14 10:00:21;;;;;;;33.50;19.52;;;;;;;;;;4814517;29;20516;-78
2022/03/14 10:02:48;;;;;;;31.08;19.33;;;;;;;;;;4801798;29;20434;-79
2022/03/14 10:05:15;;;;;;;30.80;18.55;;;;;;;;;;4786021;29;20443;-79
2022/03/14 10:07:45;;;;;;;28.70;18.10;;;;;;;;;;4784853;29;20454;-79
2022/03/14 10:10:11;;;;;;;29.13;17.13;;;;;;;;;;4772056;29;20439;-78
2022/03/14 10:12:38;;;;;;;30.77;18.52;;;;;;;;;;4786040;29;20454;-78
2022/03/14 10:15:06;;;;;;;31.85;19.40;;;;;;;;;;4788249;29;20509;-81
2022/03/14 10:17:35;;;;;;;31.42;17.15;;;;;;;;;;4795731;29;20426;-82
2022/03/14 10:20:01;;;;;;;26.90;15.80;;;;;;;;;;4776453;29;20461;-81
2022/03/14 10:22:35;;;;;;;28.77;16.42;;;;;;;;;;4797722;29;20445;-81
2022/03/14 10:25:04;;;;;;;29.42;16.13;;;;;;;;;;4774817;29;20465;-79
2022/03/14 10:27:33;;;;;;;27.95;16.20;;;9.30;99.90;;;;;;4794639;29;20434;-81
2022/03/14 10:30:01;;;;;;;27.98;16.00;;;;;;;;;;4774631;29;20435;-80
2022/03/14 10:32:32;;;;;;;31.08;17.92;;;;;;;;;;4774125;29;20415;-80
2022/03/14 10:35:00;;;;;;;25.15;14.38;;;;;;;;;;4766891;29;20447;-79
2022/03/14 10:37:28;;;;;;;24.65;14.68;;;;;;;;;;4790845;29;20426;-80
2022/03/14 10:40:12;;;;;;;24.65;13.68;;;;;;;;;;4774421;29;20457;-80
2022/03/14 10:42:40;;;;;;;24.05;13.52;;;;;;;;;;4818012;29;20526;-80
2022/03/14 10:45:15;;;;;;;24.58;12.73;;;;;;;;;;4806624;29;20427;-81
2022/03/14 10:47:52;;;;;;;23.10;12.73;;;;;;;;;;4798454;29;20527;-80
2022/03/14 10:50:31;;;;;;;21.25;12.77;;;;;;;;;;4774660;29;20435;-80
2022/03/14 10:53:04;;;;;;;23.90;12.50;;;;;;;;;;4821703;29;20487;-80
2022/03/14 10:55:34;;;;;;;23.25;12.38;;;;;;;;;;4809045;29;20940;-80
2022/03/14 10:58:07;;;;;;;23.27;11.90;;;;;;;;;;4805999;29;20438;-80
2022/03/14 11:00:51;;;;;;;23.77;12.00;;;10.30;99.90;;;;;;4793051;29;20423;-79
2022/03/14 11:03:28;;;;;;;19.65;10.65;;;10.30;99.90;;;;;;4776045;29;21301;-80
2022/03/14 11:05:58;;;;;;;20.50;10.38;;;;;;;;;;4785324;29;20512;-81
2022/03/14 11:08:27;;;;;;;19.10;9.88;;;;;;;;;;4788970;29;20447;-79
2022/03/14 11:10:54;;;;;;;16.92;9.32;;;;;;;;;;4787156;29;20488;-79
2022/03/14 11:13:21;;;;;;;19.95;9.57;;;;;;;;;;4798860;29;20435;-79
2022/03/14 11:15:47;;;;;;;19.13;9.55;;;;;;;;;;4781224;29;20983;-81
2022/03/14 11:18:13;;;;;;;17.23;9.90;;;;;;;;;;4790022;29;20776;-80
2022/03/14 11:20:40;;;;;;;16.27;9.33;;;;;;;;;;4774284;29;20515;-81
2022/03/14 11:23:07;;;;;;;17.95;8.20;;;;;;;;;;4802404;29;20468;-80
2022/03/14 11:25:33;;;;;;;15.43;8.73;;;;;;;;;;4800442;29;20428;-82
2022/03/14 11:28:01;;;;;;;18.55;9.13;;;;;;;;;;4787664;29;20448;-84
2022/03/14 11:30:27;;;;;;;16.48;9.07;;;;;;;;;;4774015;29;20773;-82
2022/03/14 11:32:54;;;;;;;19.45;10.50;;;;;;;;;;4758929;29;20447;-79
2022/03/14 11:35:20;;;;;;;15.27;9.15;;;;;;;;;;4804214;29;20427;-79
2022/03/14 11:37:47;;;;;;;23.30;10.25;;;;;;;;;;4788137;29;20435;-79
2022/03/14 11:40:13;;;;;;;20.30;10.80;;;;;;;;;;4815488;29;20861;-79
2022/03/14 11:42:40;;;;;;;21.33;10.40;;;;;;;;;;4788517;29;20506;-79
2022/03/14 11:45:07;;;;;;;21.25;11.23;;;10.90;99.90;;;;;;4800737;29;20815;-80
2022/03/14 11:47:33;;;;;;;19.33;11.63;;;;;;;;;;4787698;29;20439;-79
2022/03/14 11:50:00;;;;;;;21.77;11.82;;;;;;;;;;4787910;29;20538;-79
2022/03/14 11:52:35;;;;;;;20.60;11.70;;;;;;;;;;4788645;29;20929;-79
2022/03/14 11:55:03;;;;;;;20.15;12.73;;;;;;;;;;4793319;29;20434;-79
2022/03/14 11:57:36;;;;;;;20.17;12.93;;;;;;;;;;4760214;29;20427;-84
2022/03/14 12:00:21;;;;;;;21.73;12.85;;;10.60;99.90;;;;;;4791414;29;20482;-80
2022/03/14 12:02:47;;;;;;;23.35;13.18;;;;;;;;;;4769927;29;20996;-79
2022/03/14 12:05:13;;;;;;;22.08;13.32;;;;;;;;;;4772948;29;20765;-79
2022/03/14 12:07:39;;;;;;;23.55;13.95;;;;;;;;;;4802027;29;20936;-80
2022/03/14 12:10:25;;;;;;;25.97;14.57;;;;;;;;;;4795224;29;20444;-90
2022/03/14 12:12:53;;;;;;;26.10;14.77;;;;;;;;;;4789466;29;20431;-86
2022/03/14 12:15:37;;;;;;;21.80;14.30;;;;;;;;;;4799864;29;20467;-86
2022/03/14 12:18:28;;;;;;;25.48;15.52;;;;;;;;;;4812505;29;20429;-88
2022/03/14 12:20:54;;;;;;;24.30;15.93;;;;;;;;;;4789246;29;20429;-87
2022/03/14 12:23:27;;;;;;;24.92;15.77;;;;;;;;;;4773462;29;20439;-86
2022/03/14 12:25:54;;;;;;;22.83;15.93;;;;;;;;;;4818704;29;20427;-87
2022/03/14 12:28:38;;;;;;;25.73;17.25;;;;;;;;;;4792161;29;20556;-87
2022/03/14 12:31:04;;;;;;;26.00;17.48;;;;;;;;;;4792479;29;20434;-87
2022/03/14 12:33:37;;;;;;;25.40;17.70;;;;;;;;;;4782890;29;20465;-85
2022/03/14 12:36:33;;;;;;;27.37;18.37;;;;;;;;;;4754875;29;20464;-85
2022/03/14 12:39:06;;;;;;;28.60;18.83;;;;;;;;;;4766303;29;20426;-85
2022/03/14 12:41:33;;;;;;;26.10;18.58;;;;;;;;;;4771560;29;20518;-83
2022/03/14 12:43:59;;;;;;;26.35;18.98;;;;;;;;;;4803501;29;20463;-83
2022/03/14 12:46:26;;;;;;;28.38;18.35;;;;;;;;;;4809699;29;20462;-83
2022/03/14 12:48:54;;;;;;;25.60;17.33;;;;;;;;;;4803734;29;20449;-83
2022/03/14 12:51:24;;;;;;;26.30;16.98;;;;;;;;;;4804343;29;20431;-86
2022/03/14 12:53:51;;;;;;;24.10;16.10;;;;;;;;;;4820649;29;20428;-83
2022/03/14 12:56:19;;;;;;;26.17;16.65;;;;;;;;;;4817460;29;20434;-84
2022/03/14 12:58:50;;;;;;;23.23;15.77;;;;;;;;;;4800825;29;20427;-83
2022/03/14 13:01:17;;;;;;;24.00;16.52;;;;;;;;;;4789773;29;20801;-82
2022/03/14 13:03:44;;;;;;;23.38;15.48;;;;;;;;;;4784831;29;20417;-84
2022/03/14 13:06:10;;;;;;;24.57;15.07;;;;;;;;;;4776148;29;20427;-83
2022/03/14 13:08:57;;;;;;;23.73;14.65;;;;;;;;;;4788772;29;20447;-84
2022/03/14 13:11:31;;;;;;;24.58;15.63;;;;;;;;;;4799876;29;20439;-83
2022/03/14 13:14:01;;;;;;;22.88;14.25;;;;;;;;;;4803522;29;20434;-83
2022/03/14 13:16:29;;;;;;;20.95;12.95;;;;;;;;;;4805128;29;20919;-83
2022/03/14 13:18:55;;;;;;;18.08;10.68;;;;;;;;;;4801452;29;20911;-84
2022/03/14 13:21:23;;;;;;;18.00;11.02;;;;;;;;;;4787796;29;20435;-84
2022/03/14 13:23:55;;;;;;;20.90;10.50;;;;;;;;;;4827050;29;20434;-83
2022/03/14 13:26:22;;;;;;;18.83;10.23;;;;;;;;;;4783039;29;20450;-85
2022/03/14 13:28:49;;;;;;;18.20;9.97;;;;;;;;;;4787966;29;20543;-83
2022/03/14 13:31:15;;;;;;;19.13;9.60;;;;;;;;;;4787339;29;20494;-82
2022/03/14 13:33:43;;;;;;;17.98;9.13;;;;;;;;;;4788608;29;20431;-82
2022/03/14 13:36:11;;;;;;;19.02;9.38;;;;;;;;;;4802860;29;20427;-83
2022/03/14 13:38:44;;;;;;;15.60;9.10;;;13.00;99.90;;;;;;4787085;29;20449;-83
2022/03/14 13:41:15;;;;;;;14.90;8.45;;;;;;;;;;4794453;29;20454;-84
2022/03/14 13:43:42;;;;;;;15.63;8.53;;;12.60;99.90;;;;;;4792344;29;20484;-82
2022/03/14 13:46:30;;;;;;;15.55;9.00;;;12.90;99.90;;;;;;4809811;29;20430;-80
2022/03/14 13:49:01;;;;;;;14.05;6.38;;;;;;;;;;4777251;29;20991;-79
2022/03/14 13:51:35;;;;;;;13.07;6.60;;;12.70;99.90;;;;;;4797057;29;20778;-80
2022/03/14 13:54:06;;;;;;;13.90;6.57;;;;;;;;;;4797776;29;20434;-81
2022/03/14 13:56:34;;;;;;;15.35;7.28;;;12.70;99.90;;;;;;4802081;29;20423;-81
2022/03/14 13:59:00;;;;;;;12.52;6.88;;;;;;;;;;4790444;29;20439;-80
2022/03/14 14:01:43;;;;;;;12.55;6.85;;;;;;;;;;4787812;29;20452;-81
2022/03/14 14:04:17;;;;;;;14.48;6.93;;;12.60;99.90;;;;;;4789174;29;20434;-80
2022/03/14 14:06:44;;;;;;;11.77;6.20;;;;;;;;;;4775162;29;20438;-78
2022/03/14 14:09:18;;;;;;;12.80;6.50;;;12.90;99.90;;;;;;4801962;29;20454;-82
2022/03/14 14:12:03;;;;;;;11.63;5.97;;;;;;;;;;4814683;29;20429;-78
2022/03/14 14:14:30;;;;;;;14.45;6.38;;;;;;;;;;4806212;29;20450;-79
2022/03/14 14:17:08;;;;;;;15.07;6.10;;;;;;;;;;4793267;29;20419;-79
2022/03/14 14:19:34;;;;;;;11.70;5.60;;;;;;;;;;4827274;29;20437;-81
2022/03/14 14:22:00;;;;;;;13.63;6.00;;;;;;;;;;4763898;29;20427;-82